sensor_id;sensor_type;location;lat;lon;timestamp;temperature;humidity
46336;DHT22;31365;48.858;8.530;2023-07-13T00:01:15;19.60;99.90
46336;DHT22;31365;48.858;8.530;2023-07-13T00:03:44;19.50;99.90
46336;DHT22;31365;48.858;8.530;2023-07-13T00:06:15;19.50;99.90
46336;DHT22;31365;48.858;8.530;2023-07-13T00:08:44;19.50;99.90
46336;DHT22;31365;48.858;8.530;2023-07-13T00:11:14;19.40;99.90
46336;DHT22;31365;48.858;8.530;2023-07-13T00:13:44;19.40;99.90
46336;DHT22;31365;48.858;8.530;2023-07-13T00:16:13;19.30;99.90
46336;DHT22;31365;48.858;8.530;2023-07-13T00:18:41;19.30;99.90
46336;DHT22;31365;48.858;8.530;2023-07-13T00:21:11;19.30;99.90
46336;DHT22;31365;48.858;8.530;2023-07-13T00:23:42;19.20;99.90
46336;DHT22;31365;48.858;8.530;2023-07-13T00:26:11;19.20;99.90
46336;DHT22;31365;48.858;8.530;2023-07-13T00:28:41;19.10;99.90
46336;DHT22;31365;48.858;8.530;2023-07-13T00:31:11;19.10;99.90
46336;DHT22;31365;48.858;8.530;2023-07-13T00:33:42;19.00;99.90
46336;DHT22;31365;48.858;8.530;2023-07-13T00:36:12;19.00;99.90
46336;DHT22;31365;48.858;8.530;2023-07-13T00:38:41;19.00;99.90
46336;DHT22;31365;48.858;8.530;2023-07-13T00:41:10;18.90;99.90
46336;DHT22;31365;48.858;8.530;2023-07-13T00:43:39;18.90;99.90
46336;DHT22;31365;48.858;8.530;2023-07-13T00:46:19;18.90;99.90
46336;DHT22;31365;48.858;8.530;2023-07-13T00:48:56;18.80;99.90
46336;DHT22;31365;48.858;8.530;2023-07-13T00:51:32;18.80;99.90
46336;DHT22;31365;48.858;8.530;2023-07-13T00:54:06;18.80;99.90
46336;DHT22;31365;48.858;8.530;2023-07-13T00:56:38;18.70;99.90
46336;DHT22;31365;48.858;8.530;2023-07-13T00:59:10;18.80;99.90
46336;DHT22;31365;48.858;8.530;2023-07-13T01:01:41;18.70;99.90
46336;DHT22;31365;48.858;8.530;2023-07-13T01:04:12;18.70;99.90
46336;DHT22;31365;48.858;8.530;2023-07-13T01:06:43;18.60;99.90
46336;DHT22;31365;48.858;8.530;2023-07-13T01:09:14;18.60;99.90
46336;DHT22;31365;48.858;8.530;2023-07-13T01:11:45;18.60;99.90
46336;DHT22;31365;48.858;8.530;2023-07-13T01:14:15;18.60;99.90
46336;DHT22;31365;48.858;8.530;2023-07-13T01:16:46;18.50;99.90
46336;DHT22;31365;48.858;8.530;2023-07-13T01:19:30;18.60;99.90
46336;DHT22;31365;48.858;8.530;2023-07-13T01:22:07;18.40;99.90
46336;DHT22;31365;48.858;8.530;2023-07-13T01:24:40;18.40;99.90
46336;DHT22;31365;48.858;8.530;2023-07-13T01:27:11;18.30;99.90
46336;DHT22;31365;48.858;8.530;2023-07-13T01:29:44;18.30;99.90
46336;DHT22;31365;48.858;8.530;2023-07-13T01:32:17;18.30;99.90
46336;DHT22;31365;48.858;8.530;2023-07-13T01:34:50;18.20;99.90
46336;DHT22;31365;48.858;8.530;2023-07-13T01:37:23;18.20;99.90
46336;DHT22;31365;48.858;8.530;2023-07-13T01:39:52;18.20;99.90
46336;DHT22;31365;48.858;8.530;2023-07-13T01:42:21;18.20;99.90
46336;DHT22;31365;48.858;8.530;2023-07-13T01:44:50;18.20;99.90
46336;DHT22;31365;48.858;8.530;2023-07-13T01:47:18;18.10;99.90
46336;DHT22;31365;48.858;8.530;2023-07-13T01:49:47;18.10;99.90
46336;DHT22;31365;48.858;8.530;2023-07-13T01:52:15;18.10;99.90
46336;DHT22;31365;48.858;8.530;2023-07-13T01:54:45;18.10;99.90
46336;DHT22;31365;48.858;8.530;2023-07-13T01:57:16;18.10;99.90
46336;DHT22;31365;48.858;8.530;2023-07-13T01:59:45;18.00;99.90
46336;DHT22;31365;48.858;8.530;2023-07-13T02:02:13;18.00;99.90
46336;DHT22;31365;48.858;8.530;2023-07-13T02:04:42;18.00;99.90
46336;DHT22;31365;48.858;8.530;2023-07-13T02:07:11;18.00;99.90
46336;DHT22;31365;48.858;8.530;2023-07-13T02:09:40;18.00;99.90
46336;DHT22;31365;48.858;8.530;2023-07-13T02:12:10;17.90;99.90
46336;DHT22;31365;48.858;8.530;2023-07-13T02:14:39;17.90;99.90
46336;DHT22;31365;48.858;8.530;2023-07-13T02:17:10;17.90;99.90
46336;DHT22;31365;48.858;8.530;2023-07-13T02:19:39;17.90;99.90
46336;DHT22;31365;48.858;8.530;2023-07-13T02:22:08;17.80;99.90
46336;DHT22;31365;48.858;8.530;2023-07-13T02:24:37;17.80;99.90
46336;DHT22;31365;48.858;8.530;2023-07-13T02:27:06;17.80;99.90
46336;DHT22;31365;48.858;8.530;2023-07-13T02:29:36;17.70;99.90
46336;DHT22;31365;48.858;8.530;2023-07-13T02:32:06;17.60;99.90
46336;DHT22;31365;48.858;8.530;2023-07-13T02:34:35;17.50;99.90
46336;DHT22;31365;48.858;8.530;2023-07-13T02:37:05;17.50;99.90
46336;DHT22;31365;48.858;8.530;2023-07-13T02:39:34;17.50;99.90
46336;DHT22;31365;48.858;8.530;2023-07-13T02:42:04;17.50;99.90
46336;DHT22;31365;48.858;8.530;2023-07-13T02:44:35;17.50;99.90
46336;DHT22;31365;48.858;8.530;2023-07-13T02:47:04;17.40;99.90
46336;DHT22;31365;48.858;8.530;2023-07-13T02:49:32;17.40;99.90
46336;DHT22;31365;48.858;8.530;2023-07-13T02:52:02;17.40;99.90
46336;DHT22;31365;48.858;8.530;2023-07-13T02:54:31;17.30;99.90
46336;DHT22;31365;48.858;8.530;2023-07-13T02:57:00;17.30;99.90
46336;DHT22;31365;48.858;8.530;2023-07-13T02:59:28;17.30;99.90
46336;DHT22;31365;48.858;8.530;2023-07-13T03:02:00;17.30;99.90
46336;DHT22;31365;48.858;8.530;2023-07-13T03:04:29;17.30;99.90
46336;DHT22;31365;48.858;8.530;2023-07-13T03:06:58;17.30;99.90
46336;DHT22;31365;48.858;8.530;2023-07-13T03:09:34;17.20;99.90
46336;DHT22;31365;48.858;8.530;2023-07-13T03:12:07;17.20;99.90
46336;DHT22;31365;48.858;8.530;2023-07-13T03:14:36;17.20;99.90
46336;DHT22;31365;48.858;8.530;2023-07-13T03:17:07;17.20;99.90
46336;DHT22;31365;48.858;8.530;2023-07-13T03:19:39;17.10;99.90
46336;DHT22;31365;48.858;8.530;2023-07-13T03:22:08;17.10;99.90
46336;DHT22;31365;48.858;8.530;2023-07-13T03:24:39;17.10;99.90
46336;DHT22;31365;48.858;8.530;2023-07-13T03:27:08;17.10;99.90
46336;DHT22;31365;48.858;8.530;2023-07-13T03:29:40;17.00;99.90
46336;DHT22;31365;48.858;8.530;2023-07-13T03:32:28;17.00;99.90
46336;DHT22;31365;48.858;8.530;2023-07-13T03:34:57;17.00;99.90
46336;DHT22;31365;48.858;8.530;2023-07-13T03:37:28;17.00;99.90
46336;DHT22;31365;48.858;8.530;2023-07-13T03:39:57;16.90;99.90
46336;DHT22;31365;48.858;8.530;2023-07-13T03:45:49;16.90;99.90
46336;DHT22;31365;48.858;8.530;2023-07-13T03:48:19;16.90;99.90
46336;DHT22;31365;48.858;8.530;2023-07-13T03:50:47;16.90;99.90
46336;DHT22;31365;48.858;8.530;2023-07-13T03:53:17;16.90;99.90
46336;DHT22;31365;48.858;8.530;2023-07-13T03:55:47;16.90;99.90
46336;DHT22;31365;48.858;8.530;2023-07-13T03:58:31;16.80;99.90
46336;DHT22;31365;48.858;8.530;2023-07-13T04:01:10;16.80;99.90
46336;DHT22;31365;48.858;8.530;2023-07-13T04:03:41;16.90;99.90
46336;DHT22;31365;48.858;8.530;2023-07-13T04:06:14;16.90;99.90
46336;DHT22;31365;48.858;8.530;2023-07-13T04:08:50;16.90;99.90
46336;DHT22;31365;48.858;8.530;2023-07-13T04:11:22;16.90;99.90
46336;DHT22;31365;48.858;8.530;2023-07-13T04:13:52;17.00;99.90
46336;DHT22;31365;48.858;8.530;2023-07-13T04:16:22;17.00;99.90
46336;DHT22;31365;48.858;8.530;2023-07-13T04:18:52;17.00;99.90
46336;DHT22;31365;48.858;8.530;2023-07-13T04:21:22;17.00;99.90
46336;DHT22;31365;48.858;8.530;2023-07-13T04:23:50;17.00;99.90
46336;DHT22;31365;48.858;8.530;2023-07-13T04:26:19;17.00;99.90
46336;DHT22;31365;48.858;8.530;2023-07-13T04:28:47;17.00;99.90
46336;DHT22;31365;48.858;8.530;2023-07-13T04:31:17;17.00;99.90
46336;DHT22;31365;48.858;8.530;2023-07-13T04:33:46;17.00;99.90
46336;DHT22;31365;48.858;8.530;2023-07-13T04:36:16;17.00;99.90
46336;DHT22;31365;48.858;8.530;2023-07-13T04:38:45;17.00;99.90
46336;DHT22;31365;48.858;8.530;2023-07-13T04:41:14;17.10;99.90
46336;DHT22;31365;48.858;8.530;2023-07-13T04:43:43;17.10;99.90
46336;DHT22;31365;48.858;8.530;2023-07-13T04:46:14;17.20;99.90
46336;DHT22;31365;48.858;8.530;2023-07-13T04:48:44;17.30;99.90
46336;DHT22;31365;48.858;8.530;2023-07-13T04:51:15;17.30;99.90
46336;DHT22;31365;48.858;8.530;2023-07-13T04:53:44;17.40;99.90
46336;DHT22;31365;48.858;8.530;2023-07-13T04:56:13;17.50;99.90
46336;DHT22;31365;48.858;8.530;2023-07-13T04:58:41;17.60;99.90
46336;DHT22;31365;48.858;8.530;2023-07-13T05:01:10;17.70;99.90
46336;DHT22;31365;48.858;8.530;2023-07-13T05:03:41;17.70;99.90
46336;DHT22;31365;48.858;8.530;2023-07-13T05:06:10;17.80;99.90
46336;DHT22;31365;48.858;8.530;2023-07-13T05:08:40;17.80;99.90
46336;DHT22;31365;48.858;8.530;2023-07-13T05:11:08;17.80;99.90
46336;DHT22;31365;48.858;8.530;2023-07-13T05:13:38;17.80;99.90
46336;DHT22;31365;48.858;8.530;2023-07-13T05:16:08;17.90;99.90
46336;DHT22;31365;48.858;8.530;2023-07-13T05:18:37;17.90;99.90
46336;DHT22;31365;48.858;8.530;2023-07-13T05:21:10;18.00;99.90
46336;DHT22;31365;48.858;8.530;2023-07-13T05:23:41;18.10;99.90
46336;DHT22;31365;48.858;8.530;2023-07-13T05:26:11;18.20;99.90
46336;DHT22;31365;48.858;8.530;2023-07-13T05:28:39;18.30;99.90
46336;DHT22;31365;48.858;8.530;2023-07-13T05:31:08;18.30;99.90
46336;DHT22;31365;48.858;8.530;2023-07-13T05:33:38;18.30;99.90
46336;DHT22;31365;48.858;8.530;2023-07-13T05:36:08;18.40;99.90
46336;DHT22;31365;48.858;8.530;2023-07-13T05:38:36;18.40;99.90
46336;DHT22;31365;48.858;8.530;2023-07-13T05:41:06;18.50;99.90
46336;DHT22;31365;48.858;8.530;2023-07-13T05:43:36;18.50;99.90
46336;DHT22;31365;48.858;8.530;2023-07-13T05:46:04;18.50;99.90
46336;DHT22;31365;48.858;8.530;2023-07-13T05:48:33;18.60;99.90
46336;DHT22;31365;48.858;8.530;2023-07-13T05:51:02;18.50;99.90
46336;DHT22;31365;48.858;8.530;2023-07-13T05:53:31;18.50;99.90
46336;DHT22;31365;48.858;8.530;2023-07-13T05:55:59;18.50;99.90
46336;DHT22;31365;48.858;8.530;2023-07-13T05:58:31;18.60;99.90
46336;DHT22;31365;48.858;8.530;2023-07-13T06:01:01;18.70;99.90
46336;DHT22;31365;48.858;8.530;2023-07-13T06:03:32;18.80;99.90
46336;DHT22;31365;48.858;8.530;2023-07-13T06:06:02;18.90;99.90
46336;DHT22;31365;48.858;8.530;2023-07-13T06:08:31;18.90;99.90
46336;DHT22;31365;48.858;8.530;2023-07-13T06:11:04;19.10;99.90
46336;DHT22;31365;48.858;8.530;2023-07-13T06:13:36;19.20;99.90
46336;DHT22;31365;48.858;8.530;2023-07-13T06:16:05;19.40;99.90
46336;DHT22;31365;48.858;8.530;2023-07-13T06:18:35;19.50;99.90
46336;DHT22;31365;48.858;8.530;2023-07-13T06:21:08;19.70;99.90
46336;DHT22;31365;48.858;8.530;2023-07-13T06:23:59;20.00;99.90
46336;DHT22;31365;48.858;8.530;2023-07-13T06:26:28;20.10;99.90
46336;DHT22;31365;48.858;8.530;2023-07-13T06:28:58;20.20;99.90
46336;DHT22;31365;48.858;8.530;2023-07-13T06:31:27;20.30;99.90
46336;DHT22;31365;48.858;8.530;2023-07-13T06:33:56;20.30;99.90
46336;DHT22;31365;48.858;8.530;2023-07-13T06:36:25;20.40;99.90
46336;DHT22;31365;48.858;8.530;2023-07-13T06:38:54;20.40;99.90
46336;DHT22;31365;48.858;8.530;2023-07-13T06:41:23;20.50;99.90
46336;DHT22;31365;48.858;8.530;2023-07-13T06:43:53;20.50;99.90
46336;DHT22;31365;48.858;8.530;2023-07-13T06:46:24;20.50;99.90
46336;DHT22;31365;48.858;8.530;2023-07-13T06:48:52;20.60;99.90
46336;DHT22;31365;48.858;8.530;2023-07-13T06:51:21;20.60;99.90
46336;DHT22;31365;48.858;8.530;2023-07-13T06:53:49;20.70;99.90
46336;DHT22;31365;48.858;8.530;2023-07-13T06:56:18;20.70;99.90
46336;DHT22;31365;48.858;8.530;2023-07-13T06:58:46;20.80;99.90
46336;DHT22;31365;48.858;8.530;2023-07-13T07:01:15;20.80;99.90
46336;DHT22;31365;48.858;8.530;2023-07-13T07:03:45;20.90;99.90
46336;DHT22;31365;48.858;8.530;2023-07-13T07:06:16;20.90;99.90
46336;DHT22;31365;48.858;8.530;2023-07-13T07:08:47;21.00;99.00
46336;DHT22;31365;48.858;8.530;2023-07-13T07:11:19;21.10;99.30
46336;DHT22;31365;48.858;8.530;2023-07-13T07:13:49;21.20;99.80
46336;DHT22;31365;48.858;8.530;2023-07-13T07:16:20;21.30;99.90
46336;DHT22;31365;48.858;8.530;2023-07-13T07:18:50;21.30;98.60
46336;DHT22;31365;48.858;8.530;2023-07-13T07:21:19;21.30;99.90
46336;DHT22;31365;48.858;8.530;2023-07-13T07:23:51;21.30;98.10
46336;DHT22;31365;48.858;8.530;2023-07-13T07:26:20;21.30;98.00
46336;DHT22;31365;48.858;8.530;2023-07-13T07:28:53;21.30;98.20
46336;DHT22;31365;48.858;8.530;2023-07-13T07:31:25;21.30;98.20
46336;DHT22;31365;48.858;8.530;2023-07-13T07:33:58;21.40;98.40
46336;DHT22;31365;48.858;8.530;2023-07-13T07:36:26;21.50;99.30
46336;DHT22;31365;48.858;8.530;2023-07-13T07:38:58;21.50;99.20
46336;DHT22;31365;48.858;8.530;2023-07-13T07:41:27;21.60;98.80
46336;DHT22;31365;48.858;8.530;2023-07-13T07:43:58;21.60;98.90
46336;DHT22;31365;48.858;8.530;2023-07-13T07:46:27;21.70;98.50
46336;DHT22;31365;48.858;8.530;2023-07-13T07:48:57;21.70;98.30
46336;DHT22;31365;48.858;8.530;2023-07-13T07:51:26;21.60;97.50
46336;DHT22;31365;48.858;8.530;2023-07-13T07:53:55;21.70;97.90
46336;DHT22;31365;48.858;8.530;2023-07-13T07:56:23;21.70;97.80
46336;DHT22;31365;48.858;8.530;2023-07-13T07:58:55;21.70;97.50
46336;DHT22;31365;48.858;8.530;2023-07-13T08:01:27;21.80;97.30
46336;DHT22;31365;48.858;8.530;2023-07-13T08:04:19;21.90;96.60
46336;DHT22;31365;48.858;8.530;2023-07-13T08:06:52;21.90;96.40
46336;DHT22;31365;48.858;8.530;2023-07-13T08:09:21;22.00;96.60
46336;DHT22;31365;48.858;8.530;2023-07-13T08:11:49;22.00;96.80
46336;DHT22;31365;48.858;8.530;2023-07-13T08:14:23;22.10;96.70
46336;DHT22;31365;48.858;8.530;2023-07-13T08:17:08;22.10;97.40
46336;DHT22;31365;48.858;8.530;2023-07-13T08:20:00;22.20;97.30
46336;DHT22;31365;48.858;8.530;2023-07-13T08:22:32;22.20;98.50
46336;DHT22;31365;48.858;8.530;2023-07-13T08:25:00;22.20;98.00
46336;DHT22;31365;48.858;8.530;2023-07-13T08:27:29;22.30;97.90
46336;DHT22;31365;48.858;8.530;2023-07-13T08:29:58;22.40;97.90
46336;DHT22;31365;48.858;8.530;2023-07-13T08:32:27;22.40;98.10
46336;DHT22;31365;48.858;8.530;2023-07-13T08:34:56;22.50;98.30
46336;DHT22;31365;48.858;8.530;2023-07-13T08:37:26;22.60;98.10
46336;DHT22;31365;48.858;8.530;2023-07-13T08:39:54;22.60;97.40
46336;DHT22;31365;48.858;8.530;2023-07-13T08:42:31;22.50;96.80
46336;DHT22;31365;48.858;8.530;2023-07-13T08:45:17;22.40;96.60
46336;DHT22;31365;48.858;8.530;2023-07-13T08:47:55;22.50;97.00
46336;DHT22;31365;48.858;8.530;2023-07-13T08:50:33;22.50;96.40
46336;DHT22;31365;48.858;8.530;2023-07-13T08:53:33;22.60;95.90
46336;DHT22;31365;48.858;8.530;2023-07-13T08:56:11;22.60;95.80
46336;DHT22;31365;48.858;8.530;2023-07-13T08:58:48;22.60;96.20
46336;DHT22;31365;48.858;8.530;2023-07-13T09:01:24;22.70;96.70
46336;DHT22;31365;48.858;8.530;2023-07-13T09:04:05;22.80;96.10
46336;DHT22;31365;48.858;8.530;2023-07-13T09:06:55;22.70;96.10
46336;DHT22;31365;48.858;8.530;2023-07-13T09:09:39;22.80;96.40
46336;DHT22;31365;48.858;8.530;2023-07-13T09:12:23;22.70;96.70
46336;DHT22;31365;48.858;8.530;2023-07-13T09:15:00;22.60;96.00
46336;DHT22;31365;48.858;8.530;2023-07-13T09:17:35;22.70;95.90
46336;DHT22;31365;48.858;8.530;2023-07-13T09:20:17;22.80;96.00
46336;DHT22;31365;48.858;8.530;2023-07-13T09:22:50;23.00;95.90
46336;DHT22;31365;48.858;8.530;2023-07-13T09:25:28;23.10;95.40
46336;DHT22;31365;48.858;8.530;2023-07-13T09:28:02;23.20;94.80
46336;DHT22;31365;48.858;8.530;2023-07-13T09:30:36;23.10;95.20
46336;DHT22;31365;48.858;8.530;2023-07-13T09:33:08;23.00;95.70
46336;DHT22;31365;48.858;8.530;2023-07-13T09:35:37;23.00;96.30
46336;DHT22;31365;48.858;8.530;2023-07-13T09:38:12;23.10;95.60
46336;DHT22;31365;48.858;8.530;2023-07-13T09:40:55;23.10;94.70
46336;DHT22;31365;48.858;8.530;2023-07-13T09:43:32;23.10;94.80
46336;DHT22;31365;48.858;8.530;2023-07-13T09:46:01;23.20;94.90
46336;DHT22;31365;48.858;8.530;2023-07-13T09:48:35;23.30;95.10
46336;DHT22;31365;48.858;8.530;2023-07-13T09:51:10;23.40;95.30
46336;DHT22;31365;48.858;8.530;2023-07-13T09:53:44;23.40;93.80
46336;DHT22;31365;48.858;8.530;2023-07-13T09:56:21;23.40;93.60
46336;DHT22;31365;48.858;8.530;2023-07-13T09:58:52;23.50;93.40
46336;DHT22;31365;48.858;8.530;2023-07-13T10:01:32;23.70;93.30
46336;DHT22;31365;48.858;8.530;2023-07-13T10:04:10;23.80;92.30
46336;DHT22;31365;48.858;8.530;2023-07-13T10:06:41;23.80;92.90
46336;DHT22;31365;48.858;8.530;2023-07-13T10:09:15;23.90;93.00
46336;DHT22;31365;48.858;8.530;2023-07-13T10:11:46;24.10;93.30
46336;DHT22;31365;48.858;8.530;2023-07-13T10:14:16;24.00;91.40
46336;DHT22;31365;48.858;8.530;2023-07-13T10:16:57;23.90;91.80
46336;DHT22;31365;48.858;8.530;2023-07-13T10:19:32;23.90;92.70
46336;DHT22;31365;48.858;8.530;2023-07-13T10:22:13;24.10;92.70
46336;DHT22;31365;48.858;8.530;2023-07-13T10:24:48;24.10;90.90
46336;DHT22;31365;48.858;8.530;2023-07-13T10:27:23;24.00;91.60
46336;DHT22;31365;48.858;8.530;2023-07-13T10:30:04;24.00;91.10
46336;DHT22;31365;48.858;8.530;2023-07-13T10:32:42;23.80;90.60
46336;DHT22;31365;48.858;8.530;2023-07-13T10:35:13;23.90;90.40
46336;DHT22;31365;48.858;8.530;2023-07-13T10:37:49;23.90;91.10
46336;DHT22;31365;48.858;8.530;2023-07-13T10:40:26;24.00;91.70
46336;DHT22;31365;48.858;8.530;2023-07-13T10:43:13;23.90;90.60
46336;DHT22;31365;48.858;8.530;2023-07-13T10:45:47;23.90;90.30
46336;DHT22;31365;48.858;8.530;2023-07-13T10:48:17;24.00;90.30
46336;DHT22;31365;48.858;8.530;2023-07-13T10:50:49;24.20;90.50
46336;DHT22;31365;48.858;8.530;2023-07-13T10:53:27;24.20;91.10
46336;DHT22;31365;48.858;8.530;2023-07-13T10:56:00;24.20;90.20
46336;DHT22;31365;48.858;8.530;2023-07-13T10:58:35;24.30;88.50
46336;DHT22;31365;48.858;8.530;2023-07-13T11:01:11;24.30;90.30
46336;DHT22;31365;48.858;8.530;2023-07-13T11:03:48;24.30;91.30
46336;DHT22;31365;48.858;8.530;2023-07-13T11:06:33;24.30;90.60
46336;DHT22;31365;48.858;8.530;2023-07-13T11:09:24;24.40;90.40
46336;DHT22;31365;48.858;8.530;2023-07-13T11:12:00;24.40;90.50
46336;DHT22;31365;48.858;8.530;2023-07-13T11:14:36;24.50;86.70
46336;DHT22;31365;48.858;8.530;2023-07-13T11:20:22;24.90;90.70
46336;DHT22;31365;48.858;8.530;2023-07-13T11:23:28;25.00;91.40
46336;DHT22;31365;48.858;8.530;2023-07-13T11:26:00;24.70;90.90
46336;DHT22;31365;48.858;8.530;2023-07-13T11:28:31;24.70;91.00
46336;DHT22;31365;48.858;8.530;2023-07-13T11:31:12;25.00;89.30
46336;DHT22;31365;48.858;8.530;2023-07-13T11:33:56;25.10;86.40
46336;DHT22;31365;48.858;8.530;2023-07-13T11:36:31;25.30;85.80
46336;DHT22;31365;48.858;8.530;2023-07-13T11:39:17;26.10;85.00
46336;DHT22;31365;48.858;8.530;2023-07-13T11:41:50;27.10;84.80
46336;DHT22;31365;48.858;8.530;2023-07-13T11:44:23;27.90;83.00
46336;DHT22;31365;48.858;8.530;2023-07-13T11:46:56;28.50;82.20
46336;DHT22;31365;48.858;8.530;2023-07-13T11:49:31;28.90;81.30
46336;DHT22;31365;48.858;8.530;2023-07-13T11:52:00;28.60;81.00
46336;DHT22;31365;48.858;8.530;2023-07-13T11:54:31;28.20;80.40
46336;DHT22;31365;48.858;8.530;2023-07-13T11:59:52;27.20;80.50
46336;DHT22;31365;48.858;8.530;2023-07-13T12:02:28;27.20;80.10
46336;DHT22;31365;48.858;8.530;2023-07-13T12:05:01;26.90;81.30
46336;DHT22;31365;48.858;8.530;2023-07-13T12:07:33;27.60;82.70
46336;DHT22;31365;48.858;8.530;2023-07-13T12:10:02;28.50;81.10
46336;DHT22;31365;48.858;8.530;2023-07-13T12:12:46;29.40;78.70
46336;DHT22;31365;48.858;8.530;2023-07-13T12:15:16;30.20;76.50
46336;DHT22;31365;48.858;8.530;2023-07-13T12:17:46;30.60;74.70
46336;DHT22;31365;48.858;8.530;2023-07-13T12:20:23;31.00;73.30
46336;DHT22;31365;48.858;8.530;2023-07-13T12:22:53;31.50;73.80
46336;DHT22;31365;48.858;8.530;2023-07-13T12:25:23;32.20;71.70
46336;DHT22;31365;48.858;8.530;2023-07-13T12:27:52;32.50;71.00
46336;DHT22;31365;48.858;8.530;2023-07-13T12:30:27;32.20;70.20
46336;DHT22;31365;48.858;8.530;2023-07-13T12:33:07;32.30;70.90
46336;DHT22;31365;48.858;8.530;2023-07-13T12:35:44;33.10;69.50
46336;DHT22;31365;48.858;8.530;2023-07-13T12:38:16;33.70;68.00
46336;DHT22;31365;48.858;8.530;2023-07-13T12:40:49;33.70;66.80
46336;DHT22;31365;48.858;8.530;2023-07-13T12:43:20;33.00;68.80
46336;DHT22;31365;48.858;8.530;2023-07-13T12:45:56;33.00;70.30
46336;DHT22;31365;48.858;8.530;2023-07-13T12:48:28;32.90;69.70
46336;DHT22;31365;48.858;8.530;2023-07-13T12:51:13;32.50;69.50
46336;DHT22;31365;48.858;8.530;2023-07-13T12:53:48;32.20;71.00
46336;DHT22;31365;48.858;8.530;2023-07-13T12:56:21;32.20;70.00
46336;DHT22;31365;48.858;8.530;2023-07-13T12:58:58;32.90;70.60
46336;DHT22;31365;48.858;8.530;2023-07-13T13:01:33;32.80;66.90
46336;DHT22;31365;48.858;8.530;2023-07-13T13:04:05;33.10;67.90
46336;DHT22;31365;48.858;8.530;2023-07-13T13:06:38;33.50;64.60
46336;DHT22;31365;48.858;8.530;2023-07-13T13:09:12;33.00;65.50
46336;DHT22;31365;48.858;8.530;2023-07-13T13:11:41;32.70;66.20
46336;DHT22;31365;48.858;8.530;2023-07-13T13:14:10;32.50;66.60
46336;DHT22;31365;48.858;8.530;2023-07-13T13:16:46;32.50;66.60
46336;DHT22;31365;48.858;8.530;2023-07-13T13:19:21;32.20;66.70
46336;DHT22;31365;48.858;8.530;2023-07-13T13:21:54;31.50;68.80
46336;DHT22;31365;48.858;8.530;2023-07-13T13:24:26;31.50;69.30
46336;DHT22;31365;48.858;8.530;2023-07-13T13:26:56;32.00;68.30
46336;DHT22;31365;48.858;8.530;2023-07-13T13:29:25;32.40;65.10
46336;DHT22;31365;48.858;8.530;2023-07-13T13:31:54;32.60;63.30
46336;DHT22;31365;48.858;8.530;2023-07-13T13:34:25;33.10;63.90
46336;DHT22;31365;48.858;8.530;2023-07-13T13:36:54;33.70;63.30
46336;DHT22;31365;48.858;8.530;2023-07-13T13:39:31;34.50;61.80
46336;DHT22;31365;48.858;8.530;2023-07-13T13:42:02;34.30;61.30
46336;DHT22;31365;48.858;8.530;2023-07-13T13:44:31;34.70;61.50
46336;DHT22;31365;48.858;8.530;2023-07-13T13:47:00;35.20;62.10
46336;DHT22;31365;48.858;8.530;2023-07-13T13:49:30;35.80;60.10
46336;DHT22;31365;48.858;8.530;2023-07-13T13:51:59;35.10;60.10
46336;DHT22;31365;48.858;8.530;2023-07-13T13:54:27;35.00;61.10
46336;DHT22;31365;48.858;8.530;2023-07-13T13:56:56;34.80;59.40
46336;DHT22;31365;48.858;8.530;2023-07-13T13:59:26;34.90;60.20
46336;DHT22;31365;48.858;8.530;2023-07-13T14:01:55;35.20;60.20
46336;DHT22;31365;48.858;8.530;2023-07-13T14:04:26;35.90;60.50
46336;DHT22;31365;48.858;8.530;2023-07-13T14:06:56;36.10;59.20
46336;DHT22;31365;48.858;8.530;2023-07-13T14:09:25;35.50;58.30
46336;DHT22;31365;48.858;8.530;2023-07-13T14:11:53;34.30;59.30
46336;DHT22;31365;48.858;8.530;2023-07-13T14:14:25;32.70;61.00
46336;DHT22;31365;48.858;8.530;2023-07-13T14:16:55;31.70;63.00
46336;DHT22;31365;48.858;8.530;2023-07-13T14:19:24;31.40;64.00
46336;DHT22;31365;48.858;8.530;2023-07-13T14:21:54;32.00;62.70
46336;DHT22;31365;48.858;8.530;2023-07-13T14:24:24;32.30;61.20
46336;DHT22;31365;48.858;8.530;2023-07-13T14:26:52;32.10;60.90
46336;DHT22;31365;48.858;8.530;2023-07-13T14:29:21;32.70;61.70
46336;DHT22;31365;48.858;8.530;2023-07-13T14:31:50;33.10;61.60
46336;DHT22;31365;48.858;8.530;2023-07-13T14:34:19;33.40;59.90
46336;DHT22;31365;48.858;8.530;2023-07-13T14:36:49;33.80;58.90
46336;DHT22;31365;48.858;8.530;2023-07-13T14:39:20;34.00;58.30
46336;DHT22;31365;48.858;8.530;2023-07-13T14:41:54;33.20;59.10
46336;DHT22;31365;48.858;8.530;2023-07-13T14:44:25;32.00;61.10
46336;DHT22;31365;48.858;8.530;2023-07-13T14:46:57;30.60;62.50
46336;DHT22;31365;48.858;8.530;2023-07-13T14:49:29;30.00;64.30
46336;DHT22;31365;48.858;8.530;2023-07-13T14:52:05;30.50;64.10
46336;DHT22;31365;48.858;8.530;2023-07-13T14:54:40;30.60;64.00
46336;DHT22;31365;48.858;8.530;2023-07-13T14:57:13;30.30;63.80
46336;DHT22;31365;48.858;8.530;2023-07-13T14:59:43;30.60;64.20
46336;DHT22;31365;48.858;8.530;2023-07-13T15:02:25;30.50;63.10
46336;DHT22;31365;48.858;8.530;2023-07-13T15:04:56;30.10;65.10
46336;DHT22;31365;48.858;8.530;2023-07-13T15:07:26;29.50;65.40
46336;DHT22;31365;48.858;8.530;2023-07-13T15:09:55;29.70;66.20
46336;DHT22;31365;48.858;8.530;2023-07-13T15:12:25;29.30;66.90
46336;DHT22;31365;48.858;8.530;2023-07-13T15:14:54;28.80;67.50
46336;DHT22;31365;48.858;8.530;2023-07-13T15:17:36;28.60;67.40
46336;DHT22;31365;48.858;8.530;2023-07-13T15:20:15;28.50;68.30
46336;DHT22;31365;48.858;8.530;2023-07-13T15:22:46;28.00;68.70
46336;DHT22;31365;48.858;8.530;2023-07-13T15:25:18;27.80;69.60
46336;DHT22;31365;48.858;8.530;2023-07-13T15:27:49;27.90;69.70
46336;DHT22;31365;48.858;8.530;2023-07-13T15:30:18;28.00;68.70
46336;DHT22;31365;48.858;8.530;2023-07-13T15:32:47;28.00;68.90
46336;DHT22;31365;48.858;8.530;2023-07-13T15:35:19;28.00;69.90
46336;DHT22;31365;48.858;8.530;2023-07-13T15:37:50;27.90;69.90
46336;DHT22;31365;48.858;8.530;2023-07-13T15:40:20;27.80;69.10
46336;DHT22;31365;48.858;8.530;2023-07-13T15:42:52;27.60;69.20
46336;DHT22;31365;48.858;8.530;2023-07-13T15:45:22;27.60;68.40
46336;DHT22;31365;48.858;8.530;2023-07-13T15:47:52;27.40;69.20
46336;DHT22;31365;48.858;8.530;2023-07-13T15:50:23;27.40;69.60
46336;DHT22;31365;48.858;8.530;2023-07-13T15:52:55;27.50;69.60
46336;DHT22;31365;48.858;8.530;2023-07-13T15:55:38;27.40;69.70
46336;DHT22;31365;48.858;8.530;2023-07-13T15:58:12;27.50;69.90
46336;DHT22;31365;48.858;8.530;2023-07-13T16:00:42;27.40;70.00
46336;DHT22;31365;48.858;8.530;2023-07-13T16:03:11;27.50;70.90
46336;DHT22;31365;48.858;8.530;2023-07-13T16:05:41;27.30;71.00
46336;DHT22;31365;48.858;8.530;2023-07-13T16:08:19;27.10;71.60
46336;DHT22;31365;48.858;8.530;2023-07-13T16:10:52;27.00;71.30